createdAt,value
2019-03-28T00:03:32.428Z,9.80
2019-03-28T00:07:41.161Z,9.80
2019-03-28T00:11:49.655Z,10.10
2019-03-28T00:15:58.296Z,10.30
2019-03-28T00:20:06.980Z,9.07
2019-03-28T00:24:17.075Z,10.00
2019-03-28T00:28:25.550Z,10.47
2019-03-28T00:32:34.038Z,10.10
2019-03-28T00:36:42.510Z,10.07
2019-03-28T00:40:50.972Z,9.63
2019-03-28T00:44:59.443Z,11.03
2019-03-28T00:49:07.926Z,9.10
2019-03-28T00:53:16.728Z,9.40
2019-03-28T00:57:25.463Z,9.40
2019-03-28T01:01:33.956Z,8.08
2019-03-28T01:05:42.445Z,8.90
2019-03-28T01:09:51.237Z,8.53
2019-03-28T01:13:59.722Z,9.87
2019-03-28T01:18:08.161Z,9.20
2019-03-28T01:22:16.644Z,10.00
2019-03-28T01:26:25.095Z,8.70
2019-03-28T01:30:33.572Z,9.70
2019-03-28T01:34:42.051Z,8.60
2019-03-28T01:38:50.529Z,10.20
2019-03-28T01:42:58.998Z,8.37
2019-03-28T01:47:07.740Z,10.70
2019-03-28T01:51:16.240Z,9.00
2019-03-28T01:55:24.768Z,8.23
2019-03-28T01:59:33.298Z,9.70
2019-03-28T02:03:41.762Z,9.30
2019-03-28T02:07:50.294Z,9.23
2019-03-28T02:11:58.844Z,9.50
2019-03-28T02:16:07.347Z,8.40
2019-03-28T02:20:16.060Z,9.50
2019-03-28T02:24:24.947Z,10.55
2019-03-28T02:28:33.386Z,9.97
2019-03-28T02:32:42.113Z,8.30
2019-03-28T02:36:50.586Z,9.50
2019-03-28T02:40:59.106Z,9.10
2019-03-28T02:45:08.307Z,9.97
2019-03-28T02:49:16.767Z,9.90
2019-03-28T02:53:25.249Z,10.87
2019-03-28T02:57:40.755Z,9.80
2019-03-28T03:01:43.902Z,10.00
2019-03-28T03:05:52.448Z,10.30
2019-03-28T03:10:00.950Z,10.80
2019-03-28T03:14:09.385Z,9.80
2019-03-28T03:18:21.274Z,10.60
2019-03-28T03:22:28.743Z,11.57
2019-03-28T03:26:37.607Z,9.80
2019-03-28T03:30:46.332Z,11.43
2019-03-28T03:34:54.915Z,10.50
2019-03-28T03:39:04.132Z,12.33
2019-03-28T03:43:12.603Z,11.50
2019-03-28T03:47:21.075Z,12.27
2019-03-28T03:51:29.568Z,10.40
2019-03-28T03:55:38.069Z,12.30
2019-03-28T03:59:46.562Z,12.10
2019-03-28T04:03:55.784Z,13.50
2019-03-28T04:08:04.548Z,12.13
2019-03-28T04:12:13.000Z,14.50
2019-03-28T04:16:21.784Z,14.57
2019-03-28T04:20:30.265Z,14.57
2019-03-28T04:24:38.774Z,14.40
2019-03-28T04:28:47.250Z,12.60
2019-03-28T04:32:55.737Z,13.73
2019-03-28T04:37:04.272Z,15.20
2019-03-28T04:41:12.748Z,14.17
2019-03-28T04:45:21.267Z,13.93
2019-03-28T04:49:29.739Z,15.20
2019-03-28T04:53:38.208Z,13.77
2019-03-28T04:57:46.961Z,13.77
2019-03-28T05:02:02.835Z,13.80
2019-03-28T05:06:05.690Z,15.20
2019-03-28T05:10:14.276Z,14.90
2019-03-28T05:14:22.821Z,14.03
2019-03-28T05:18:31.818Z,14.07
2019-03-28T05:22:40.882Z,13.60
2019-03-28T05:26:49.365Z,13.37
2019-03-28T05:30:57.844Z,14.40
2019-03-28T05:35:07.251Z,14.10
2019-03-28T05:39:15.720Z,14.83
2019-03-28T05:43:24.448Z,14.10
2019-03-28T05:47:32.915Z,15.33
2019-03-28T05:51:41.643Z,14.80
2019-03-28T05:55:50.124Z,15.87
2019-03-28T05:59:58.582Z,15.80
2019-03-28T06:04:07.040Z,14.70
2019-03-28T06:08:15.526Z,14.73
2019-03-28T06:12:24.288Z,15.30
2019-03-28T06:16:32.784Z,16.00
2019-03-28T06:20:41.300Z,14.53
2019-03-28T06:24:50.049Z,19.63
2019-03-28T06:28:58.811Z,16.57
2019-03-28T06:33:07.267Z,16.83
2019-03-28T06:37:15.749Z,16.70
2019-03-28T06:41:24.493Z,16.07
2019-03-28T06:45:33.264Z,18.90
2019-03-28T06:49:41.704Z,18.87
2019-03-28T06:53:50.186Z,20.07
2019-03-28T06:57:58.933Z,20.37
2019-03-28T07:02:07.761Z,23.53
2019-03-28T07:06:16.285Z,23.47
2019-03-28T07:10:24.849Z,21.80
2019-03-28T07:14:33.290Z,23.90
2019-03-28T07:18:41.773Z,22.37
2019-03-28T07:22:50.510Z,22.73
2019-03-28T07:26:58.979Z,20.67
2019-03-28T07:31:07.423Z,23.53
2019-03-28T07:35:15.966Z,23.07
2019-03-28T07:39:24.447Z,22.07
2019-03-28T07:43:32.914Z,20.20
2019-03-28T07:47:41.657Z,23.03
2019-03-28T07:51:50.118Z,23.00
2019-03-28T07:55:58.585Z,23.27
2019-03-28T08:00:09.711Z,21.97
2019-03-28T08:04:18.226Z,23.38
2019-03-28T08:08:38.272Z,22.63
2019-03-28T08:12:36.889Z,23.70
2019-03-28T08:16:45.388Z,23.57
2019-03-28T08:20:53.883Z,23.57
2019-03-28T08:25:02.496Z,23.87
2019-03-28T08:29:10.973Z,23.00
2019-03-28T08:33:19.449Z,22.77
2019-03-28T08:37:28.354Z,22.20
2019-03-28T08:41:36.823Z,22.03
2019-03-28T08:45:45.280Z,22.83
2019-03-28T08:49:53.751Z,22.60
2019-03-28T08:54:02.321Z,22.13
2019-03-28T08:58:10.885Z,22.17
2019-03-28T09:02:19.374Z,20.40
2019-03-28T09:06:28.190Z,20.97
2019-03-28T09:10:36.670Z,22.10
2019-03-28T09:19:11.471Z,21.90
2019-03-28T09:23:20.021Z,20.13
2019-03-28T09:27:28.520Z,20.57
2019-03-28T09:31:37.268Z,20.90
2019-03-28T09:35:45.767Z,22.70
2019-03-28T09:39:54.482Z,22.70
2019-03-28T09:44:02.948Z,21.47
2019-03-28T09:48:12.057Z,20.93
2019-03-28T09:52:20.655Z,21.40
2019-03-28T09:56:29.416Z,21.40
2019-03-28T10:00:38.029Z,21.37
2019-03-28T10:04:46.482Z,19.07
2019-03-28T10:08:54.955Z,20.17
2019-03-28T10:13:03.536Z,19.73
2019-03-28T10:17:12.099Z,17.50
2019-03-28T10:21:20.579Z,15.97
2019-03-28T10:25:29.110Z,19.23
2019-03-28T10:29:37.914Z,18.77
2019-03-28T10:33:46.524Z,16.73
2019-03-28T10:37:55.382Z,15.90
2019-03-28T10:42:04.035Z,17.10
2019-03-28T10:46:12.619Z,14.10
2019-03-28T10:50:21.148Z,13.47
2019-03-28T10:54:29.714Z,14.83
2019-03-28T10:58:38.305Z,11.40
2019-03-28T11:02:47.010Z,9.80
2019-03-28T11:06:55.944Z,7.00
2019-03-28T11:11:04.918Z,8.87
2019-03-28T11:15:13.667Z,7.23
2019-03-28T11:19:22.253Z,6.70
2019-03-28T11:23:31.177Z,7.00
2019-03-28T11:27:40.120Z,7.20
2019-03-28T11:31:52.186Z,8.00
2019-03-28T11:35:59.389Z,7.67
2019-03-28T11:40:10.145Z,9.20
2019-03-28T11:44:18.720Z,9.97
2019-03-28T11:48:27.326Z,10.90
2019-03-28T11:52:35.977Z,10.60
2019-03-28T11:56:44.580Z,11.03
2019-03-28T12:00:53.154Z,10.40
2019-03-28T12:05:01.734Z,11.07
2019-03-28T12:09:10.339Z,10.30
2019-03-28T12:13:18.910Z,10.50
2019-03-28T12:17:27.766Z,9.60
2019-03-28T12:21:36.365Z,9.70
2019-03-28T12:25:47.313Z,10.30
2019-03-28T12:29:55.210Z,9.70
2019-03-28T12:34:03.835Z,9.87
2019-03-28T12:38:12.441Z,9.18
2019-03-28T12:42:21.007Z,10.80
2019-03-28T12:46:29.867Z,10.57
2019-03-28T12:50:38.411Z,9.50
2019-03-28T12:54:47.283Z,10.90
2019-03-28T12:58:55.888Z,9.23
2019-03-28T13:03:04.654Z,9.55
2019-03-28T13:07:13.207Z,10.17
2019-03-28T13:11:21.924Z,9.90
2019-03-28T13:15:30.522Z,10.37
2019-03-28T13:19:39.128Z,10.67
2019-03-28T13:23:47.678Z,9.50
2019-03-28T13:27:56.280Z,10.13
2019-03-28T13:32:04.879Z,9.23
2019-03-28T13:36:13.472Z,9.03
2019-03-28T13:40:22.084Z,9.10
2019-03-28T13:44:30.671Z,9.60
2019-03-28T13:48:39.304Z,10.07
2019-03-28T13:52:48.102Z,10.00
2019-03-28T13:56:56.704Z,10.83
2019-03-28T14:01:05.307Z,10.23
2019-03-28T14:05:13.895Z,10.00
2019-03-28T14:09:23.403Z,9.60
2019-03-28T14:13:32.140Z,9.53
2019-03-28T14:17:40.743Z,10.03
2019-03-28T14:21:49.292Z,11.50
2019-03-28T14:25:57.811Z,9.83
2019-03-28T14:30:11.528Z,10.60
2019-03-28T14:34:20.359Z,8.73
2019-03-28T14:38:28.952Z,9.53
2019-03-28T14:42:37.541Z,10.33
2019-03-28T14:46:46.397Z,9.33
2019-03-28T14:50:55.096Z,8.70
2019-03-28T14:55:04.064Z,10.45
2019-03-28T14:59:13.698Z,9.05
2019-03-28T15:03:27.459Z,8.87
2019-03-28T15:07:33.309Z,8.60
2019-03-28T15:11:42.213Z,7.90
2019-03-28T15:15:50.779Z,7.80
2019-03-28T15:19:59.744Z,8.90
2019-03-28T15:24:08.374Z,9.60
2019-03-28T15:28:16.945Z,8.57
2019-03-28T15:32:25.455Z,8.73
2019-03-28T15:36:34.025Z,9.53
2019-03-28T15:40:42.665Z,8.30
2019-03-28T15:44:51.233Z,8.23
2019-03-28T15:48:59.748Z,8.13
2019-03-28T15:53:08.975Z,8.97
2019-03-28T15:57:17.585Z,9.23
2019-03-28T16:01:26.133Z,10.93
2019-03-28T16:05:34.664Z,9.70
2019-03-28T16:09:43.266Z,9.10
2019-03-28T16:13:51.856Z,9.03
2019-03-28T16:18:00.424Z,8.13
2019-03-28T16:22:09.005Z,8.67
2019-03-28T16:26:17.518Z,9.67
2019-03-28T16:30:38.840Z,10.97
2019-03-28T16:34:47.439Z,8.40
2019-03-28T16:38:56.044Z,9.20
2019-03-28T16:43:25.796Z,12.30
2019-03-28T16:47:34.224Z,12.93
2019-03-28T16:51:43.537Z,13.90
2019-03-28T16:55:52.263Z,12.60
2019-03-28T17:00:00.843Z,12.07
2019-03-28T17:04:19.985Z,12.77
2019-03-28T17:08:20.190Z,13.10
2019-03-28T17:12:28.780Z,14.77
2019-03-28T17:16:37.380Z,12.50
2019-03-28T17:20:46.351Z,12.83
2019-03-28T17:24:54.952Z,13.10
2019-03-28T17:29:03.530Z,14.13
2019-03-28T17:33:12.256Z,13.70
2019-03-28T17:37:20.845Z,11.13
2019-03-28T17:41:29.447Z,13.00
2019-03-28T17:45:38.028Z,13.30
2019-03-28T17:49:46.644Z,13.40
2019-03-28T17:53:56.268Z,16.07
2019-03-28T17:58:05.609Z,14.57
2019-03-28T18:02:14.174Z,16.17
2019-03-28T18:06:23.038Z,16.70
2019-03-28T18:10:31.607Z,18.47
2019-03-28T18:14:40.224Z,15.67
2019-03-28T18:18:48.802Z,17.43
2019-03-28T18:22:57.500Z,15.13
2019-03-28T18:27:06.234Z,17.27
2019-03-28T18:31:14.860Z,14.80
2019-03-28T18:35:23.431Z,14.77
2019-03-28T18:39:32.036Z,15.40
2019-03-28T18:43:40.930Z,15.30
2019-03-28T18:47:49.775Z,14.50
2019-03-28T18:51:58.382Z,15.00
2019-03-28T18:56:07.147Z,13.03
2019-03-28T19:00:16.140Z,17.07
2019-03-28T19:04:24.637Z,16.40
2019-03-28T19:08:33.235Z,15.30
2019-03-28T19:12:41.824Z,15.33
2019-03-28T19:16:52.184Z,15.07
2019-03-28T19:21:01.759Z,13.53
2019-03-28T19:25:10.706Z,13.60
2019-03-28T19:29:19.278Z,14.03
2019-03-28T19:33:28.677Z,13.97
2019-03-28T19:37:38.054Z,15.10
2019-03-28T19:41:46.653Z,16.27
2019-03-28T19:45:55.231Z,14.47
2019-03-28T19:50:06.205Z,14.87
2019-03-28T19:54:15.172Z,16.30
2019-03-28T19:58:24.094Z,15.67
2019-03-28T20:02:33.704Z,15.70
2019-03-28T20:06:42.383Z,17.07
2019-03-28T20:10:51.338Z,17.87
2019-03-28T20:15:00.323Z,18.43
2019-03-28T20:19:09.512Z,19.73
2019-03-28T20:23:18.442Z,19.20
2019-03-28T20:27:27.034Z,18.93
2019-03-28T20:31:35.597Z,19.60
2019-03-28T20:35:44.195Z,20.57
2019-03-28T20:39:52.851Z,18.70
2019-03-28T20:44:01.402Z,19.87
2019-03-28T20:48:09.967Z,21.40
2019-03-28T20:52:19.192Z,21.20
2019-03-28T20:56:27.962Z,19.50
2019-03-28T21:00:41.967Z,18.97
2019-03-28T21:04:50.579Z,17.40
2019-03-28T21:08:59.448Z,20.23
2019-03-28T21:13:08.004Z,19.37
2019-03-28T21:17:16.605Z,20.30
2019-03-28T21:21:30.406Z,18.47
2019-03-28T21:25:38.987Z,21.27
2019-03-28T21:29:49.119Z,18.87
2019-03-28T21:33:57.775Z,18.07
2019-03-28T21:38:06.301Z,19.33
2019-03-28T21:42:15.044Z,16.30
2019-03-28T21:46:23.551Z,17.53
2019-03-28T21:50:32.034Z,18.10
2019-03-28T21:54:40.487Z,18.87
2019-03-28T21:58:49.265Z,17.50
2019-03-28T22:02:58.098Z,20.20
2019-03-28T22:07:06.588Z,19.80
2019-03-28T22:11:15.380Z,20.50
2019-03-28T22:15:23.850Z,21.37
2019-03-28T22:19:32.617Z,20.80
2019-03-28T22:23:41.078Z,20.97
2019-03-28T22:27:49.558Z,19.87
2019-03-28T22:31:58.037Z,20.27
2019-03-28T22:36:06.470Z,24.73
2019-03-28T22:40:15.275Z,27.30
2019-03-28T22:44:24.803Z,23.60
2019-03-28T22:48:33.675Z,22.23
2019-03-28T22:52:42.164Z,20.43
2019-03-28T22:56:50.665Z,20.27
2019-03-28T23:00:59.167Z,20.57
2019-03-28T23:05:08.088Z,21.70
2019-03-28T23:09:16.579Z,21.03
2019-03-28T23:13:25.070Z,19.03
2019-03-28T23:17:33.562Z,19.17
2019-03-28T23:21:42.033Z,19.93
2019-03-28T23:25:50.494Z,18.80
2019-03-28T23:29:58.967Z,20.90
2019-03-28T23:34:07.468Z,17.87
2019-03-28T23:38:16.206Z,18.57
2019-03-28T23:42:24.697Z,17.40
2019-03-28T23:46:33.149Z,16.97
2019-03-28T23:50:41.616Z,17.40
2019-03-28T23:54:50.258Z,16.97
2019-03-28T23:58:58.738Z,17.97
